createdAt,value
2022-08-26T00:00:57.642Z,23.43
2022-08-26T00:03:23.588Z,23.46
2022-08-26T00:05:50.380Z,23.42
2022-08-26T00:08:19.135Z,23.52
2022-08-26T00:10:45.347Z,23.47
2022-08-26T00:13:11.387Z,23.51
2022-08-26T00:15:38.013Z,23.44
2022-08-26T00:18:04.486Z,23.51
2022-08-26T00:20:42.816Z,23.41
2022-08-26T00:23:09.007Z,23.44
2022-08-26T00:25:35.625Z,23.53
2022-08-26T00:28:09.130Z,23.51
2022-08-26T00:30:37.143Z,23.43
2022-08-26T00:33:05.288Z,23.49
2022-08-26T00:35:32.261Z,23.52
2022-08-26T00:38:00.873Z,23.51
2022-08-26T00:40:34.721Z,23.63
2022-08-26T00:43:02.349Z,23.56
2022-08-26T00:46:04.126Z,23.53
2022-08-26T00:48:34.960Z,23.49
2022-08-26T00:51:11.101Z,23.49
2022-08-26T00:53:44.970Z,23.48
2022-08-26T00:57:00.382Z,23.48
2022-08-26T00:59:28.431Z,23.51
2022-08-26T01:01:56.102Z,23.42
2022-08-26T01:04:23.670Z,23.35
2022-08-26T01:06:53.753Z,23.09
2022-08-26T01:09:21.595Z,23.06
2022-08-26T01:11:49.756Z,23.02
2022-08-26T01:14:16.956Z,23.06
2022-08-26T01:16:45.181Z,23.04
2022-08-26T01:19:26.220Z,23.13
2022-08-26T01:21:58.731Z,23.14
2022-08-26T01:24:26.917Z,23.21
2022-08-26T01:26:59.770Z,23.28
2022-08-26T01:29:27.287Z,23.29
2022-08-26T01:31:55.905Z,23.32
2022-08-26T01:34:36.974Z,23.35
2022-08-26T01:37:16.095Z,23.34
2022-08-26T01:39:44.066Z,23.43
2022-08-26T01:42:13.865Z,23.51
2022-08-26T01:44:44.334Z,23.46
2022-08-26T01:47:12.861Z,23.39
2022-08-26T01:49:40.333Z,23.31
2022-08-26T01:52:09.395Z,23.30
2022-08-26T01:54:36.877Z,23.28
2022-08-26T01:57:04.651Z,23.18
2022-08-26T01:59:30.795Z,22.98
2022-08-26T02:01:57.220Z,22.90
2022-08-26T02:04:32.375Z,22.92
2022-08-26T02:07:01.502Z,22.86
2022-08-26T02:09:27.640Z,22.71
2022-08-26T02:11:53.985Z,22.71
2022-08-26T02:14:28.523Z,22.71
2022-08-26T02:16:55.424Z,22.58
2022-08-26T02:19:28.573Z,22.49
2022-08-26T02:21:57.242Z,22.61
2022-08-26T02:24:27.541Z,22.22
2022-08-26T02:26:55.106Z,22.16
2022-08-26T02:29:43.886Z,22.05
2022-08-26T02:32:10.450Z,22.22
2022-08-26T02:34:37.279Z,22.29
2022-08-26T02:37:07.567Z,22.33
2022-08-26T02:39:36.256Z,22.52
2022-08-26T02:42:04.518Z,22.41
2022-08-26T02:44:31.126Z,22.29
2022-08-26T02:46:59.762Z,22.28
2022-08-26T02:49:27.565Z,22.42
2022-08-26T02:51:53.581Z,22.28
2022-08-26T02:54:23.278Z,22.33
2022-08-26T02:56:50.586Z,22.13
2022-08-26T02:59:17.240Z,22.17
2022-08-26T03:01:44.445Z,22.09
2022-08-26T03:04:12.149Z,22.04
2022-08-26T03:06:38.686Z,22.06
2022-08-26T03:09:06.912Z,21.99
2022-08-26T03:11:33.731Z,22.18
2022-08-26T03:14:00.320Z,22.09
2022-08-26T03:16:32.252Z,21.81
2022-08-26T03:18:59.254Z,21.96
2022-08-26T03:21:25.179Z,21.96
2022-08-26T03:23:51.005Z,22.10
2022-08-26T03:26:16.853Z,22.15
2022-08-26T03:29:00.950Z,22.15
2022-08-26T03:31:28.771Z,22.18
2022-08-26T03:33:59.129Z,22.18
2022-08-26T03:36:26.039Z,22.29
2022-08-26T03:38:51.850Z,22.15
2022-08-26T03:41:17.721Z,22.17
2022-08-26T03:43:44.250Z,21.95
2022-08-26T03:46:11.593Z,21.47
2022-08-26T03:48:38.931Z,21.24
2022-08-26T03:51:11.815Z,21.10
2022-08-26T03:53:37.640Z,20.80
2022-08-26T03:56:05.831Z,20.88
2022-08-26T03:58:32.415Z,20.86
2022-08-26T04:00:58.596Z,20.69
2022-08-26T04:03:52.454Z,20.73
2022-08-26T04:06:18.349Z,20.74
2022-08-26T04:08:44.464Z,20.79
2022-08-26T04:11:17.614Z,20.83
2022-08-26T04:13:43.509Z,20.71
2022-08-26T04:16:09.285Z,20.68
2022-08-26T04:18:37.524Z,20.68
2022-08-26T04:21:12.349Z,20.70
2022-08-26T04:23:47.625Z,20.63
2022-08-26T04:26:14.520Z,20.56
2022-08-26T04:28:40.318Z,20.69
2022-08-26T04:31:10.414Z,20.50
2022-08-26T04:33:36.285Z,20.47
2022-08-26T04:36:08.484Z,20.51
2022-08-26T04:38:34.558Z,20.52
2022-08-26T04:41:00.763Z,20.40
2022-08-26T04:43:29.906Z,20.26
2022-08-26T04:45:59.167Z,20.23
2022-08-26T04:48:26.741Z,20.18
2022-08-26T04:50:52.715Z,20.15
2022-08-26T04:53:18.904Z,20.29
2022-08-26T04:55:45.157Z,20.15
2022-08-26T04:58:14.286Z,20.14
2022-08-26T05:00:40.146Z,20.19
2022-08-26T05:03:07.590Z,20.09
2022-08-26T05:05:41.672Z,19.98
2022-08-26T05:08:12.162Z,20.01
2022-08-26T05:10:43.594Z,19.97
2022-08-26T05:13:11.238Z,20.10
2022-08-26T05:15:38.556Z,19.76
2022-08-26T05:18:06.327Z,19.88
2022-08-26T05:20:42.674Z,19.79
2022-08-26T05:23:08.669Z,19.56
2022-08-26T05:25:39.788Z,19.59
2022-08-26T05:28:05.994Z,19.51
2022-08-26T05:30:31.966Z,19.57
2022-08-26T05:32:58.441Z,19.44
2022-08-26T05:35:28.332Z,19.61
2022-08-26T05:37:58.395Z,19.61
2022-08-26T05:40:24.912Z,19.57
2022-08-26T05:42:52.244Z,19.49
2022-08-26T05:45:19.530Z,19.52
2022-08-26T05:47:45.653Z,19.70
2022-08-26T05:50:12.797Z,19.82
2022-08-26T05:52:38.646Z,19.66
2022-08-26T05:55:05.041Z,19.62
2022-08-26T05:57:32.218Z,19.82
2022-08-26T05:59:58.106Z,19.70
2022-08-26T06:02:23.970Z,19.68
2022-08-26T06:04:50.061Z,19.67
2022-08-26T06:07:37.658Z,19.66
2022-08-26T06:10:30.927Z,19.81
2022-08-26T06:12:52.120Z,19.81
2022-08-26T06:15:17.975Z,19.88
2022-08-26T06:17:45.205Z,19.68
2022-08-26T06:20:11.510Z,19.85
2022-08-26T06:22:56.373Z,19.81
2022-08-26T06:25:37.295Z,20.07
2022-08-26T06:28:04.518Z,19.91
2022-08-26T06:30:31.941Z,19.97
2022-08-26T06:33:00.230Z,19.87
2022-08-26T06:35:26.283Z,20.00
2022-08-26T06:37:52.081Z,19.95
2022-08-26T06:40:18.126Z,20.04
2022-08-26T06:42:45.100Z,19.55
2022-08-26T06:45:11.213Z,19.91
2022-08-26T06:47:37.329Z,20.05
2022-08-26T06:50:03.257Z,20.06
2022-08-26T06:52:29.064Z,19.99
2022-08-26T06:54:55.099Z,20.08
2022-08-26T06:57:20.976Z,19.89
2022-08-26T06:59:47.418Z,19.91
2022-08-26T07:02:17.038Z,19.83
2022-08-26T07:04:43.714Z,19.96
2022-08-26T07:07:14.615Z,19.98
2022-08-26T07:09:40.479Z,20.05
2022-08-26T07:12:06.797Z,20.20
2022-08-26T07:14:34.410Z,20.19
2022-08-26T07:17:01.149Z,20.32
2022-08-26T07:19:30.545Z,20.43
2022-08-26T07:21:58.628Z,20.58
2022-08-26T07:24:24.470Z,20.47
2022-08-26T07:26:58.487Z,20.39
2022-08-26T07:29:24.709Z,20.33
2022-08-26T07:31:51.469Z,20.44
2022-08-26T07:34:17.334Z,20.44
2022-08-26T07:36:43.849Z,20.52
2022-08-26T07:39:09.620Z,20.39
2022-08-26T07:41:35.855Z,20.50
2022-08-26T07:44:02.186Z,20.41
2022-08-26T07:46:30.559Z,20.57
2022-08-26T07:48:57.633Z,20.61
2022-08-26T07:51:24.126Z,20.68
2022-08-26T07:53:52.465Z,20.82
2022-08-26T07:56:19.653Z,20.93
2022-08-26T07:58:50.491Z,20.97
2022-08-26T08:01:22.997Z,21.22
2022-08-26T08:03:52.544Z,21.17
2022-08-26T08:06:27.235Z,21.19
2022-08-26T08:08:55.035Z,20.91
2022-08-26T08:11:21.244Z,20.97
2022-08-26T08:13:47.883Z,21.19
2022-08-26T08:16:14.919Z,21.14
2022-08-26T08:18:40.817Z,20.82
2022-08-26T08:21:22.156Z,20.62
2022-08-26T08:23:55.118Z,20.95
2022-08-26T08:26:23.190Z,21.41
2022-08-26T08:28:49.285Z,21.66
2022-08-26T08:31:38.983Z,21.82
2022-08-26T08:34:09.351Z,21.79
2022-08-26T08:36:35.889Z,21.88
2022-08-26T08:39:02.390Z,22.10
2022-08-26T08:41:40.835Z,22.07
2022-08-26T08:44:15.221Z,22.30
2022-08-26T08:46:42.190Z,22.44
2022-08-26T08:49:10.345Z,22.45
2022-08-26T08:51:51.440Z,22.44
2022-08-26T08:54:18.900Z,22.55
2022-08-26T08:57:00.994Z,22.72
2022-08-26T08:59:32.808Z,22.81
2022-08-26T09:02:08.862Z,22.91
2022-08-26T09:04:51.192Z,23.08
2022-08-26T09:07:50.184Z,23.16
2022-08-26T09:10:22.584Z,23.38
2022-08-26T09:12:50.003Z,22.97
2022-08-26T09:15:21.752Z,23.06
2022-08-26T09:18:11.688Z,22.87
2022-08-26T09:20:48.783Z,22.75
2022-08-26T09:23:15.735Z,22.71
2022-08-26T09:26:20.042Z,22.99
2022-08-26T09:29:01.459Z,23.22
2022-08-26T09:31:35.545Z,23.51
2022-08-26T09:34:17.313Z,23.61
2022-08-26T09:36:52.802Z,23.54
2022-08-26T09:39:27.394Z,23.65
2022-08-26T09:42:08.275Z,23.83
2022-08-26T09:45:03.283Z,24.11
2022-08-26T09:47:37.805Z,24.31
2022-08-26T09:50:13.695Z,24.44
2022-08-26T09:52:40.536Z,24.17
2022-08-26T09:55:23.023Z,24.24
2022-08-26T09:57:54.414Z,24.16
2022-08-26T10:00:38.603Z,24.14
2022-08-26T10:03:23.342Z,24.45
2022-08-26T10:06:03.538Z,24.70
2022-08-26T10:08:44.086Z,24.85
2022-08-26T10:11:28.303Z,25.37
2022-08-26T10:13:59.980Z,25.48
2022-08-26T10:16:44.714Z,25.42
2022-08-26T10:19:16.154Z,25.82
2022-08-26T10:21:52.261Z,25.88
2022-08-26T10:24:30.294Z,26.28
2022-08-26T10:27:01.757Z,26.63
2022-08-26T10:29:50.090Z,26.67
2022-08-26T10:32:41.347Z,26.64
2022-08-26T10:35:11.724Z,26.13
2022-08-26T10:38:08.457Z,25.94
2022-08-26T10:41:00.835Z,26.01
2022-08-26T10:43:35.204Z,26.35
2022-08-26T10:46:13.686Z,26.50
2022-08-26T10:48:48.473Z,26.94
2022-08-26T10:51:15.763Z,27.17
2022-08-26T10:54:10.264Z,27.19
2022-08-26T10:56:54.870Z,27.01
2022-08-26T10:59:39.112Z,26.49
2022-08-26T11:02:25.273Z,26.28
2022-08-26T11:05:02.669Z,26.30
2022-08-26T11:07:46.288Z,26.75
2022-08-26T11:10:21.804Z,27.08
2022-08-26T11:12:51.346Z,27.55
2022-08-26T11:15:19.297Z,28.44
2022-08-26T11:17:50.544Z,28.31
2022-08-26T11:20:41.846Z,28.42
2022-08-26T11:23:30.983Z,28.52
2022-08-26T11:26:08.725Z,28.79
2022-08-26T11:28:40.339Z,28.74
2022-08-26T11:31:25.831Z,28.78
2022-08-26T11:33:56.617Z,28.69
2022-08-26T11:36:28.678Z,28.74
2022-08-26T11:38:54.503Z,28.87
2022-08-26T11:41:23.624Z,28.97
2022-08-26T11:43:51.473Z,28.67
2022-08-26T11:46:26.103Z,29.00
2022-08-26T11:49:04.530Z,29.55
2022-08-26T11:51:31.287Z,29.60
2022-08-26T11:54:15.881Z,29.23
2022-08-26T11:56:43.830Z,28.37
2022-08-26T11:59:14.777Z,28.67
2022-08-26T12:01:48.314Z,29.34
2022-08-26T12:04:27.927Z,29.35
2022-08-26T12:06:54.995Z,29.30
2022-08-26T12:09:24.267Z,29.40
2022-08-26T12:11:50.154Z,29.16
2022-08-26T12:14:20.011Z,28.80
2022-08-26T12:16:46.606Z,28.97
2022-08-26T12:19:29.294Z,29.46
2022-08-26T12:22:04.240Z,29.70
2022-08-26T12:24:30.441Z,30.09
2022-08-26T12:27:15.033Z,30.07
2022-08-26T12:29:41.096Z,29.50
2022-08-26T12:32:17.510Z,28.49
2022-08-26T12:34:46.482Z,28.41
2022-08-26T12:37:13.453Z,28.49
2022-08-26T12:39:43.639Z,27.65
2022-08-26T12:42:12.237Z,27.86
2022-08-26T12:44:53.965Z,27.19
2022-08-26T12:47:42.052Z,26.85
2022-08-26T12:50:12.204Z,27.05
2022-08-26T12:53:08.928Z,27.30
2022-08-26T12:55:55.966Z,27.75
2022-08-26T12:58:34.000Z,28.11
2022-08-26T13:01:05.975Z,28.16
2022-08-26T13:03:36.284Z,28.10
2022-08-26T13:06:23.225Z,28.25
2022-08-26T13:08:59.140Z,27.64
2022-08-26T13:11:28.364Z,27.31
2022-08-26T13:14:00.625Z,26.75
2022-08-26T13:16:28.571Z,26.66
2022-08-26T13:18:57.346Z,26.17
2022-08-26T13:21:26.708Z,25.66
2022-08-26T13:23:53.314Z,25.65
2022-08-26T13:26:19.971Z,25.76
2022-08-26T13:28:53.276Z,25.42
2022-08-26T13:31:30.208Z,25.03
2022-08-26T13:33:56.688Z,25.06
2022-08-26T13:36:22.749Z,24.85
2022-08-26T13:38:48.641Z,24.87
2022-08-26T13:41:18.501Z,24.98
2022-08-26T13:43:54.878Z,24.36
2022-08-26T13:46:20.755Z,24.61
2022-08-26T13:48:46.709Z,24.70
2022-08-26T13:51:12.728Z,24.84
2022-08-26T13:53:38.525Z,24.72
2022-08-26T13:56:10.856Z,24.58
2022-08-26T13:58:36.987Z,24.24
2022-08-26T14:01:02.951Z,24.10
2022-08-26T14:03:28.851Z,24.04
2022-08-26T14:05:55.173Z,24.42
2022-08-26T14:08:21.585Z,24.23
2022-08-26T14:13:15.022Z,23.98
2022-08-26T14:15:41.203Z,23.88
2022-08-26T14:18:09.303Z,23.97
2022-08-26T14:20:36.628Z,23.80
2022-08-26T14:23:13.643Z,23.48
2022-08-26T14:25:40.263Z,23.56
2022-08-26T14:28:06.072Z,23.58
2022-08-26T14:30:32.003Z,23.72
2022-08-26T14:33:01.193Z,23.62
2022-08-26T14:35:30.048Z,23.64
2022-08-26T14:37:56.642Z,23.52
2022-08-26T14:40:26.434Z,23.47
2022-08-26T14:42:54.031Z,23.48
2022-08-26T14:45:23.547Z,23.53
2022-08-26T14:47:51.603Z,23.53
2022-08-26T14:50:24.278Z,23.44
2022-08-26T14:53:09.644Z,23.39
2022-08-26T14:55:37.583Z,23.42
2022-08-26T14:58:03.840Z,23.56
2022-08-26T15:00:30.265Z,23.46
2022-08-26T15:02:57.591Z,23.46
2022-08-26T15:05:24.367Z,23.44
2022-08-26T15:07:50.177Z,23.26
2022-08-26T15:10:17.247Z,23.43
2022-08-26T15:12:44.066Z,22.97
2022-08-26T15:15:12.211Z,22.60
2022-08-26T15:17:39.406Z,22.46
2022-08-26T15:20:09.642Z,22.54
2022-08-26T15:22:37.397Z,22.70
2022-08-26T15:25:04.884Z,22.60
2022-08-26T15:27:31.462Z,22.77
2022-08-26T15:29:57.634Z,22.98
2022-08-26T15:32:23.574Z,23.16
2022-08-26T15:34:49.999Z,22.81
2022-08-26T15:37:16.233Z,22.95
2022-08-26T15:39:42.475Z,22.77
2022-08-26T15:42:08.308Z,22.69
2022-08-26T15:44:35.870Z,22.61
2022-08-26T15:47:01.920Z,22.70
2022-08-26T15:49:27.893Z,22.50
2022-08-26T15:51:54.264Z,22.49
2022-08-26T15:54:22.433Z,22.54
2022-08-26T15:56:50.952Z,22.62
2022-08-26T15:59:18.036Z,22.37
2022-08-26T16:01:44.970Z,22.44
2022-08-26T16:04:11.686Z,22.49
2022-08-26T16:06:39.693Z,22.64
2022-08-26T16:09:06.894Z,22.48
2022-08-26T16:11:35.223Z,22.62
2022-08-26T16:14:01.719Z,22.66
2022-08-26T16:16:27.689Z,22.60
2022-08-26T16:18:54.001Z,22.54
2022-08-26T16:21:23.691Z,22.50
2022-08-26T16:23:50.216Z,22.45
2022-08-26T16:26:19.762Z,22.44
2022-08-26T16:28:46.629Z,22.32
2022-08-26T16:31:13.157Z,22.33
2022-08-26T16:33:39.958Z,22.39
2022-08-26T16:36:06.797Z,22.36
2022-08-26T16:38:33.644Z,22.32
2022-08-26T16:41:00.438Z,22.45
2022-08-26T16:43:26.645Z,22.19
2022-08-26T16:45:52.545Z,22.34
2022-08-26T16:48:18.852Z,22.34
2022-08-26T16:50:44.781Z,22.45
2022-08-26T16:55:48.836Z,22.49
2022-08-26T16:58:16.020Z,22.53
2022-08-26T17:00:42.145Z,22.52
2022-08-26T17:03:08.712Z,22.47
2022-08-26T17:05:35.568Z,22.33
2022-08-26T17:08:01.594Z,22.17
2022-08-26T17:10:29.336Z,22.38
2022-08-26T17:12:55.765Z,22.34
2022-08-26T17:15:25.162Z,22.28
2022-08-26T17:17:52.453Z,22.32
2022-08-26T17:20:19.291Z,22.18
2022-08-26T17:22:47.061Z,22.15
2022-08-26T17:25:23.429Z,21.84
2022-08-26T17:27:49.557Z,21.68
2022-08-26T17:30:16.907Z,21.78
2022-08-26T17:32:43.421Z,21.80
2022-08-26T17:35:11.547Z,21.73
2022-08-26T17:37:39.948Z,21.64
2022-08-26T17:40:09.019Z,21.77
2022-08-26T17:42:37.420Z,21.72
2022-08-26T17:45:03.633Z,21.78
2022-08-26T17:47:29.413Z,21.79
2022-08-26T17:49:55.401Z,21.80
2022-08-26T17:52:21.338Z,21.65
2022-08-26T17:54:47.206Z,21.88
2022-08-26T17:57:13.091Z,21.92
2022-08-26T17:59:38.986Z,21.91
2022-08-26T18:02:06.903Z,21.72
2022-08-26T18:04:32.796Z,21.60
2022-08-26T18:06:58.758Z,21.62
2022-08-26T18:09:24.689Z,21.63
2022-08-26T18:11:50.547Z,21.62
2022-08-26T18:14:16.401Z,21.58
2022-08-26T18:16:42.293Z,21.71
2022-08-26T18:19:08.242Z,21.79
2022-08-26T18:21:35.497Z,21.81
2022-08-26T18:24:01.864Z,21.55
2022-08-26T18:26:32.510Z,21.54
2022-08-26T18:28:59.555Z,21.58
2022-08-26T18:31:26.147Z,21.66
2022-08-26T18:33:52.551Z,21.56
2022-08-26T18:36:21.396Z,21.53
2022-08-26T18:38:50.473Z,21.46
2022-08-26T18:41:19.855Z,21.64
2022-08-26T18:43:46.212Z,21.63
2022-08-26T18:46:12.139Z,21.43
2022-08-26T18:48:39.863Z,21.32
2022-08-26T18:51:06.451Z,21.11
2022-08-26T18:53:33.688Z,21.12
2022-08-26T18:56:00.413Z,21.09
2022-08-26T18:58:26.520Z,21.11
2022-08-26T19:00:54.105Z,20.95
2022-08-26T19:03:19.922Z,21.03
2022-08-26T19:05:45.801Z,20.96
2022-08-26T19:08:11.718Z,21.07
2022-08-26T19:10:38.737Z,21.06
2022-08-26T19:13:06.639Z,21.02
2022-08-26T19:15:40.773Z,20.90
2022-08-26T19:18:07.842Z,21.03
2022-08-26T19:20:36.850Z,21.04
2022-08-26T19:23:10.554Z,21.15
2022-08-26T19:25:50.825Z,21.05
2022-08-26T19:28:20.371Z,21.18
2022-08-26T19:30:52.533Z,21.01
2022-08-26T19:33:19.236Z,21.02
2022-08-26T19:35:45.462Z,20.77
2022-08-26T19:38:11.365Z,20.57
2022-08-26T19:40:38.436Z,20.49
2022-08-26T19:43:05.144Z,20.56
2022-08-26T19:45:31.817Z,20.49
2022-08-26T19:47:58.054Z,20.43
2022-08-26T19:50:26.907Z,20.47
2022-08-26T19:52:53.390Z,20.59
2022-08-26T19:55:21.723Z,20.40
2022-08-26T19:57:49.447Z,20.45
2022-08-26T20:00:17.666Z,20.49
2022-08-26T20:02:43.942Z,20.69
2022-08-26T20:05:11.847Z,20.77
2022-08-26T20:07:38.516Z,20.86
2022-08-26T20:10:06.966Z,20.77
2022-08-26T20:12:34.859Z,20.74
2022-08-26T20:15:04.353Z,20.50
2022-08-26T20:17:31.302Z,20.31
2022-08-26T20:20:28.493Z,20.34
2022-08-26T20:23:00.943Z,20.63
2022-08-26T20:25:26.794Z,20.74
2022-08-26T20:27:52.625Z,20.72
2022-08-26T20:30:18.570Z,20.74
2022-08-26T20:32:44.428Z,20.69
2022-08-26T20:35:13.114Z,20.88
2022-08-26T20:37:40.426Z,20.73
2022-08-26T20:40:08.580Z,20.78
2022-08-26T20:42:35.201Z,20.76
2022-08-26T20:45:01.957Z,20.78
2022-08-26T20:47:27.984Z,20.76
2022-08-26T20:49:55.193Z,20.70
2022-08-26T20:52:20.996Z,20.74
2022-08-26T20:54:46.887Z,20.73
2022-08-26T20:57:13.830Z,20.72
2022-08-26T20:59:40.002Z,20.70
2022-08-26T21:02:06.863Z,20.68
2022-08-26T21:04:32.736Z,20.65
2022-08-26T21:06:58.657Z,20.71
2022-08-26T21:09:26.655Z,20.59
2022-08-26T21:11:53.060Z,20.71
2022-08-26T21:14:19.849Z,20.45
2022-08-26T21:16:46.399Z,20.48
2022-08-26T21:19:14.531Z,20.51
2022-08-26T21:21:41.074Z,20.38
2022-08-26T21:24:07.638Z,20.23
2022-08-26T21:26:33.583Z,20.29
2022-08-26T21:29:00.382Z,20.41
2022-08-26T21:31:26.410Z,20.50
2022-08-26T21:33:52.470Z,20.24
2022-08-26T21:36:19.139Z,20.41
2022-08-26T21:38:45.392Z,20.44
2022-08-26T21:41:14.681Z,20.37
2022-08-26T21:43:42.005Z,20.48
2022-08-26T21:46:13.683Z,20.33
2022-08-26T21:48:48.826Z,20.45
2022-08-26T21:51:19.336Z,20.35
2022-08-26T21:53:45.794Z,20.31
2022-08-26T21:56:14.412Z,20.33
2022-08-26T21:58:40.526Z,20.36
2022-08-26T22:01:13.269Z,20.25
2022-08-26T22:03:47.679Z,20.00
2022-08-26T22:06:16.686Z,20.15
2022-08-26T22:08:42.880Z,20.13
2022-08-26T22:11:09.640Z,20.21
2022-08-26T22:13:37.939Z,19.85
2022-08-26T22:16:05.322Z,19.99
2022-08-26T22:18:33.540Z,20.10
2022-08-26T22:21:04.639Z,20.23
2022-08-26T22:23:31.106Z,20.31
2022-08-26T22:25:58.084Z,20.19
2022-08-26T22:28:24.170Z,20.26
2022-08-26T22:30:50.154Z,20.00
2022-08-26T22:33:16.732Z,20.05
2022-08-26T22:35:45.779Z,19.91
2022-08-26T22:38:11.957Z,20.08
2022-08-26T22:40:45.862Z,19.98
2022-08-26T22:43:12.341Z,19.86
2022-08-26T22:45:47.098Z,19.81
2022-08-26T22:48:15.782Z,19.98
2022-08-26T22:50:43.537Z,20.02
2022-08-26T22:53:09.669Z,19.99
2022-08-26T22:55:36.780Z,20.00
2022-08-26T22:58:03.098Z,20.07
2022-08-26T23:00:32.122Z,19.83
2022-08-26T23:02:59.839Z,19.85
2022-08-26T23:05:25.769Z,19.79
2022-08-26T23:07:51.762Z,19.89
2022-08-26T23:10:17.639Z,19.86
2022-08-26T23:12:43.437Z,19.65
2022-08-26T23:15:11.638Z,19.80
2022-08-26T23:17:38.357Z,19.93
2022-08-26T23:20:09.256Z,19.80
2022-08-26T23:22:35.997Z,19.63
2022-08-26T23:25:02.611Z,19.52
2022-08-26T23:27:34.856Z,19.57
2022-08-26T23:30:00.877Z,19.62
2022-08-26T23:32:26.759Z,19.42
2022-08-26T23:34:55.091Z,19.31
2022-08-26T23:37:31.362Z,19.29
2022-08-26T23:39:58.111Z,19.44
2022-08-26T23:42:24.029Z,19.43
2022-08-26T23:44:50.026Z,19.47
2022-08-26T23:47:17.524Z,19.39
2022-08-26T23:49:43.490Z,19.35
2022-08-26T23:52:27.993Z,19.28
2022-08-26T23:54:53.983Z,19.21
2022-08-26T23:57:22.714Z,19.02
2022-08-26T23:59:48.950Z,18.89
